Time;durP1;ratioP1;P1;durP2;ratioP2;P2;SDS_P1;SDS_P2;PMS_P1;PMS_P2;Temp;Humidity;BMP_temperature;BMP_pressure;BME280_temperature;BME280_humidity;BME280_pressure;Samples;Min_cycle;Max_cycle;Signal;HPM_P1;HPM_P2
2022/06/23 00:00:22;;;;;;;1.90;1.40;;;;;;;24.42;49.47;99386.00;4480147;31;31892;-84
2022/06/23 00:02:51;;;;;;;3.20;1.58;;;;;;;24.36;50.00;99387.50;4493025;31;34549;-84
2022/06/23 00:05:21;;;;;;;3.30;1.80;;;;;;;24.25;50.51;99390.47;4494129;31;33955;-84
2022/06/23 00:07:54;;;;;;;4.72;1.42;;;;;;;24.33;49.92;99384.25;4479987;31;33929;-84
2022/06/23 00:10:28;;;;;;;2.03;1.83;;;;;;;24.24;50.35;99397.72;4478278;31;33722;-84
2022/06/23 00:12:56;;;;;;;4.40;1.42;;;;;;;24.10;50.70;99398.34;4478034;31;33327;-84
2022/06/23 00:15:31;;;;;;;3.37;1.80;;;;;;;24.24;50.27;99400.41;4493224;31;34056;-84
2022/06/23 00:18:06;;;;;;;3.17;1.50;;;;;;;24.44;49.84;99397.44;4477216;31;33627;-84
2022/06/23 00:20:53;;;;;;;1.50;1.40;;;;;;;24.51;49.16;99406.59;4464635;31;33261;-83
2022/06/23 00:23:28;;;;;;;3.25;2.00;;;;;;;24.35;49.63;99420.00;4476406;31;34668;-83
2022/06/23 00:26:07;;;;;;;2.28;1.67;;;;;;;24.01;51.11;99408.25;4479436;32;33606;-83
2022/06/23 00:29:06;;;;;;;1.62;1.48;;;;;;;24.16;48.47;99408.47;4479339;31;32577;-83
2022/06/23 00:31:43;;;;;;;1.98;1.08;;;;;;;24.21;47.61;99427.75;4472195;31;32776;-84
2022/06/23 00:34:22;;;;;;;4.68;1.85;;;;;;;23.98;47.00;99421.25;4480402;31;32896;-83
2022/06/23 00:36:52;;;;;;;2.67;1.55;;;;;;;24.08;45.23;99427.34;4478757;31;34466;-83
2022/06/23 00:39:38;;;;;;;5.65;1.33;;;;;;;24.03;45.87;99429.69;4491417;31;33085;-83
2022/06/23 00:42:16;;;;;;;3.03;1.40;;;;;;;24.06;45.70;99418.56;4492261;31;33033;-83
2022/06/23 00:44:56;;;;;;;2.47;1.00;;;;;;;23.82;47.10;99429.25;4487426;31;34585;-84
2022/06/23 00:47:46;;;;;;;0.95;0.95;;;;;;;23.94;44.65;99433.34;4466109;31;33105;-83
2022/06/23 00:50:18;;;;;;;2.85;0.80;;;;;;;24.32;41.46;99441.94;4479819;31;32522;-83
2022/06/23 00:52:51;;;;;;;3.78;1.17;;;;;;;24.06;40.14;99439.28;4489402;31;34058;-83
2022/06/23 00:55:34;;;;;;;1.17;1.08;;;;;;;24.10;39.51;99444.19;4478590;31;33784;-83
2022/06/23 00:58:14;;;;;;;2.08;0.95;;;;;;;23.91;38.38;99457.94;4488107;31;33812;-83
2022/06/23 01:00:43;;;;;;;1.33;0.95;;;;;;;23.92;37.81;99449.66;4480290;31;33794;-83
2022/06/23 01:03:16;;;;;;;3.65;1.20;;;;;;;23.92;37.36;99459.63;4475607;31;32202;-83
2022/06/23 01:05:56;;;;;;;1.17;0.90;;;;;;;23.97;38.26;99468.06;4489333;31;34457;-84
2022/06/23 01:08:34;;;;;;;3.22;1.20;;;;;;;24.10;37.86;99463.09;4483908;31;32875;-84
2022/06/23 01:11:11;;;;;;;4.43;1.02;;;;;;;23.92;39.00;99454.22;4478254;31;33054;-84
2022/06/23 01:13:48;;;;;;;2.35;1.00;;;;;;;24.20;38.00;99453.00;4480430;31;33172;-84
2022/06/23 01:16:39;;;;;;;1.83;0.82;;;;;;;24.03;37.54;99451.25;4473053;31;32548;-84
2022/06/23 01:19:43;;;;;;;2.53;0.90;;;;;;;24.17;38.40;99447.94;4471410;31;32852;-84
2022/06/23 01:22:28;;;;;;;4.47;1.08;;;;;;;24.00;38.99;99457.81;4479140;31;32828;-84
2022/06/23 01:25:04;;;;;;;1.48;0.88;;;;;;;23.77;38.90;99451.28;4476348;31;33148;-84
2022/06/23 01:27:50;;;;;;;2.90;0.90;;;;;;;23.81;40.31;99454.50;4490046;31;34106;-84
2022/06/23 01:30:19;;;;;;;1.23;1.02;;;;;;;23.67;43.76;99451.41;4493062;31;33606;-84
2022/06/23 01:33:03;;;;;;;1.17;1.00;;;;;;;23.60;44.89;99455.72;4463920;31;34025;-84
2022/06/23 01:35:46;;;;;;;1.17;1.08;;;;;;;23.76;44.58;99468.47;4495869;31;32627;-84
2022/06/23 01:38:22;;;;;;;1.27;0.93;;;;;;;23.32;50.26;99463.09;4488115;31;34431;-83
2022/06/23 01:40:59;;;;;;;1.27;1.10;;;;;;;23.26;50.24;99469.09;4490990;31;34640;-83
2022/06/23 01:43:43;;;;;;;1.30;1.10;;;;;;;23.24;50.21;99479.19;4491438;31;32775;-84
2022/06/23 01:46:15;;;;;;;3.75;1.40;;;;;;;23.03;52.88;99466.06;4481797;31;33307;-84
2022/06/23 01:48:56;;;;;;;1.58;1.35;;;;;;;22.58;54.94;99464.22;4476809;31;32776;-84
2022/06/23 01:51:28;;;;;;;3.65;1.40;;;;;;;22.45;56.37;99450.28;4493093;31;33858;-84
2022/06/23 01:54:22;;;;;;;2.85;1.20;;;;;;;22.47;55.71;99448.31;4479557;31;33385;-83
2022/06/23 01:56:55;;;;;;;;;;;;;;;22.47;56.09;99459.06;4477892;31;32656;-84
2022/06/23 01:59:43;;;;;;;1.87;1.40;;;;;;;22.32;56.69;99457.91;4476701;31;34601;-84
2022/06/23 02:02:11;;;;;;;2.83;1.35;;;;;;;22.18;56.41;99452.00;4464936;31;33363;-84
2022/06/23 02:04:49;;;;;;;3.33;1.17;;;;;;;21.87;58.00;99453.25;4478904;31;34464;-84
2022/06/23 02:07:25;;;;;;;3.60;1.23;;;;;;;21.64;57.34;99464.34;4488097;31;33428;-84
2022/06/23 02:09:54;;;;;;;1.62;1.20;;;;;;;21.62;56.57;99462.81;4491735;31;34292;-83
2022/06/23 02:12:54;;;;;;;2.35;1.98;;;;;;;21.65;56.75;99466.06;4490769;31;33805;-84
2022/06/23 02:15:29;;;;;;;1.33;1.23;;;;;;;21.59;57.50;99469.31;4469398;31;33589;-84
2022/06/23 02:18:11;;;;;;;4.00;1.85;;;;;;;21.66;57.67;99457.00;4477659;31;33214;-83
2022/06/23 02:20:57;;;;;;;1.60;1.40;;;;;;;21.47;58.72;99470.50;4490894;31;33635;-83
2022/06/23 02:23:31;;;;;;;1.27;1.17;;;;;;;21.42;58.79;99470.94;4488429;31;32663;-84
2022/06/23 02:26:10;;;;;;;1.45;1.35;;;;;;;21.33;59.45;99473.63;4494678;31;33519;-83
2022/06/23 02:28:57;;;;;;;1.52;1.10;;;;;;;21.44;59.21;99474.31;4477613;31;33536;-84
2022/06/23 02:31:39;;;;;;;1.40;1.20;;;;;;;21.51;59.31;99468.34;4466823;31;33257;-84
2022/06/23 02:34:11;;;;;;;1.27;1.17;;;;;;;21.39;59.30;99465.00;4481130;31;33724;-84
2022/06/23 02:36:41;;;;;;;2.05;1.45;;;;;;;21.30;59.47;99465.81;4479809;31;33357;-84
2022/06/23 02:39:19;;;;;;;5.28;1.33;;;;;;;21.54;58.38;99479.66;4489589;31;33362;-84
2022/06/23 02:41:58;;;;;;;1.87;1.25;;;;;;;21.47;58.37;99494.66;4480038;31;32806;-84
2022/06/23 02:44:56;;;;;;;4.62;1.52;;;;;;;21.21;58.79;99495.22;4470959;31;32626;-84
2022/06/23 02:47:58;;;;;;;1.40;1.27;;;;;;;21.08;59.75;99516.16;4464893;32;33601;-84
2022/06/23 02:51:00;;;;;;;1.87;1.45;;;;;;;21.12;60.20;99505.94;4454970;31;31428;-83
2022/06/23 02:53:44;;;;;;;;;;;;;;;21.13;60.07;99503.16;4489106;31;33773;-83
2022/06/23 02:56:44;;;;;;;1.50;1.40;;;;;;;20.97;60.45;99502.84;4493235;31;33070;-83
2022/06/23 02:59:18;;;;;;;2.17;1.60;;;;;;;20.92;59.89;99518.53;4483131;31;33172;-83
2022/06/23 03:01:52;;;;;;;1.77;1.23;;;;;;;20.90;59.28;99523.19;4477042;31;33759;-83
2022/06/23 03:04:31;;;;;;;1.05;0.90;;;;;;;20.92;59.18;99524.72;4493567;31;33618;-83
2022/06/23 03:07:11;;;;;;;3.20;1.50;;;;;;;21.11;58.62;99525.75;4478568;31;33976;-83
2022/06/23 03:09:47;;;;;;;3.15;1.30;;;;;;;20.92;59.56;99521.22;4492464;31;33803;-83
2022/06/23 03:12:26;;;;;;;1.48;1.37;;;;;;;20.99;58.85;99518.84;4490677;31;33324;-82
2022/06/23 03:15:07;;;;;;;2.00;1.40;;;;;;;21.00;58.22;99529.41;4477081;31;33331;-83
2022/06/23 03:17:50;;;;;;;1.48;1.27;;;;;;;20.85;58.88;99536.19;4480291;31;34004;-83
2022/06/23 03:20:30;;;;;;;2.47;1.42;;;;;;;20.89;58.56;99543.81;4477889;31;33238;-83
2022/06/23 03:23:01;;;;;;;2.62;1.62;;;;;;;20.81;59.79;99540.12;4481471;31;32085;-83
2022/06/23 03:25:49;;;;;;;1.58;1.40;;;;;;;20.85;59.83;99541.56;4479859;31;32409;-83
2022/06/23 03:28:24;;;;;;;1.85;1.35;;;;;;;20.91;59.36;99551.72;4479133;31;33964;-83
2022/06/23 03:31:25;;;;;;;2.72;2.08;;;;;;;20.68;60.97;99543.91;4479309;31;34553;-83
2022/06/23 03:33:57;;;;;;;2.95;1.17;;;;;;;20.85;60.50;99546.91;4463114;31;33258;-83
2022/06/23 03:36:30;;;;;;;1.95;1.37;;;;;;;20.86;60.52;99543.25;4478293;31;32752;-82
2022/06/23 03:42:10;;;;;;;5.00;2.17;;;;;;;20.97;60.01;99540.41;4490422;31;34655;-82
2022/06/23 03:44:46;;;;;;;1.50;1.27;;;;;;;21.09;59.62;99550.06;4489809;31;34026;-83
2022/06/23 03:47:22;;;;;;;1.58;1.48;;;;;;;21.01;59.65;99549.06;4491656;31;33008;-82
2022/06/23 03:49:56;;;;;;;2.33;1.95;;;;;;;21.18;58.70;99559.09;4491482;31;33990;-82
2022/06/23 03:52:44;;;;;;;1.52;1.40;;;;;;;21.14;59.03;99558.53;4471437;31;33091;-82
2022/06/23 03:55:18;;;;;;;2.03;1.40;;;;;;;21.20;58.77;99563.34;4491085;31;33364;-83
2022/06/23 03:57:53;;;;;;;2.15;1.52;;;;;;;21.36;58.19;99572.69;4476126;31;32388;-82
2022/06/23 04:00:44;;;;;;;2.22;1.33;;;;;;;21.24;59.25;99574.66;4489051;31;33359;-82
2022/06/23 04:03:20;;;;;;;2.53;1.40;;;;;;;21.26;58.81;99579.88;4466514;31;33108;-83
2022/06/23 04:05:54;;;;;;;2.10;1.40;;;;;;;21.33;58.49;99583.75;4478083;31;33362;-83
2022/06/23 04:08:27;;;;;;;2.70;1.52;;;;;;;21.34;58.78;99580.06;4489984;31;33283;-83
2022/06/23 04:10:59;;;;;;;1.73;1.25;;;;;;;21.50;58.75;99580.31;4479275;31;34438;-84
2022/06/23 04:13:32;;;;;;;2.00;1.67;;;;;;;21.67;59.21;99582.28;4491731;31;33848;-84
2022/06/23 04:16:04;;;;;;;3.70;1.27;;;;;;;21.88;58.58;99575.88;4471491;31;31922;-84
2022/06/23 04:18:38;;;;;;;5.93;1.62;;;;;;;22.38;56.49;99584.56;4490964;31;34497;-83
2022/06/23 04:21:14;;;;;;;7.45;1.92;;;;;;;22.21;56.93;99591.53;4478486;31;33704;-83
2022/06/23 04:24:05;;;;;;;2.95;2.05;;;;;;;22.11;57.39;99592.53;4491203;31;32662;-85
2022/06/23 04:26:41;;;;;;;4.55;1.62;;;;;;;22.14;57.16;99593.12;4489690;31;32085;-85
2022/06/23 04:29:22;;;;;;;6.72;2.08;;;;;;;22.40;57.00;99589.78;4488555;31;33629;-85
2022/06/23 04:32:03;;;;;;;4.80;2.17;;;;;;;22.48;56.42;99592.59;4495131;31;35195;-85
2022/06/23 04:34:36;;;;;;;3.70;1.67;;;;;;;22.68;56.01;99593.34;4480915;31;32851;-85
2022/06/23 04:37:15;;;;;;;3.03;1.80;;;;;;;22.57;55.88;99597.09;4464896;31;32346;-85
2022/06/23 04:39:45;;;;;;;2.47;1.58;;;;;;;22.68;55.97;99588.81;4479458;31;34635;-85
2022/06/23 04:42:22;;;;;;;5.65;2.45;;;;;;;22.88;55.63;99591.38;4494058;31;34897;-85
2022/06/23 04:44:54;;;;;;;4.28;1.45;;;;;;;22.97;55.70;99603.97;4477663;31;34152;-84
2022/06/23 04:47:27;;;;;;;1.83;1.48;;;;;;;23.02;55.42;99603.53;4487161;31;33411;-84
2022/06/23 04:49:58;;;;;;;1.85;1.30;;;;;;;23.12;54.95;99605.19;4480607;31;34338;-85
2022/06/23 04:52:35;;;;;;;1.80;1.20;;;;;;;23.25;54.49;99608.31;4472737;31;33744;-84
2022/06/23 04:55:13;;;;;;;6.03;1.58;;;;;;;23.69;52.87;99618.34;4487833;31;33958;-85
2022/06/23 04:57:54;;;;;;;3.87;1.70;;;;;;;23.60;47.16;99616.59;4474062;31;32344;-85
2022/06/23 05:00:24;;;;;;;1.30;1.10;;;;;;;23.72;47.07;99620.75;4462562;31;33241;-85
2022/06/23 05:03:03;;;;;;;3.83;1.08;;;;;;;23.70;42.01;99614.69;4486343;31;33922;-83
2022/06/23 05:05:36;;;;;;;2.37;0.90;;;;;;;23.33;41.01;99625.59;4503617;31;34560;-83
2022/06/23 05:08:12;;;;;;;1.58;1.27;;;;;;;23.49;40.04;99626.56;4487784;31;33723;-83
2022/06/23 05:10:51;;;;;;;1.40;0.90;;;;;;;23.35;40.53;99623.56;4462626;31;33268;-83
2022/06/23 05:13:22;;;;;;;1.80;1.20;;;;;;;23.17;38.25;99624.41;4472132;32;33885;-84
2022/06/23 05:16:00;;;;;;;;;;;;;;;23.42;38.64;99635.44;4482181;31;33197;-83
2022/06/23 05:18:34;;;;;;;3.40;1.37;;;;;;;23.64;40.69;99637.72;4491827;31;33862;-84
2022/06/23 05:21:08;;;;;;;2.62;1.35;;;;;;;23.63;38.08;99637.81;4476693;31;34626;-84
2022/06/23 05:23:42;;;;;;;1.85;1.20;;;;;;;23.80;39.20;99644.25;4476838;31;33872;-83
2022/06/23 05:26:23;;;;;;;2.58;0.73;;;;;;;24.04;39.58;99640.91;4464903;31;33723;-83
2022/06/23 05:28:59;;;;;;;3.92;1.25;;;;;;;24.01;38.98;99648.28;4478151;31;32655;-83
2022/06/23 05:31:35;;;;;;;1.55;1.20;;;;;;;24.07;37.05;99645.97;4475714;31;35259;-84
2022/06/23 05:34:27;;;;;;;1.30;0.90;;;;;;;24.45;36.28;99644.72;4478618;31;33334;-84
2022/06/23 05:37:06;;;;;;;1.15;1.00;;;;;;;24.48;37.33;99645.25;4488141;31;32404;-84
2022/06/23 05:39:44;;;;;;;8.20;1.62;;;;;;;24.45;37.47;99653.69;4489492;31;32653;-84
2022/06/23 05:42:17;;;;;;;3.08;1.17;;;;;;;24.40;37.67;99656.03;4469731;31;32838;-84
2022/06/23 05:44:53;;;;;;;4.18;1.15;;;;;;;24.60;36.51;99656.66;4490699;31;33653;-83
2022/06/23 05:47:26;;;;;;;1.48;1.17;;;;;;;24.78;33.68;99662.81;4480686;31;33508;-83
2022/06/23 05:49:58;;;;;;;1.50;1.17;;;;;;;24.58;33.75;99666.75;4477871;31;32306;-84
2022/06/23 05:52:32;;;;;;;1.30;1.00;;;;;;;24.84;33.14;99661.31;4491168;31;34500;-84
2022/06/23 05:55:18;;;;;;;5.25;1.33;;;;;;;24.79;34.37;99666.37;4490928;31;34340;-84
2022/06/23 05:57:55;;;;;;;1.87;0.52;;;;;;;24.97;35.21;99666.25;4477114;31;33481;-84
2022/06/23 06:00:43;;;;;;;3.17;0.93;;;;;;;24.85;32.66;99678.38;4481655;31;32437;-85
2022/06/23 06:03:28;;;;;;;1.48;1.10;;;;;;;25.05;33.24;99669.00;4477331;31;35362;-84
2022/06/23 06:06:01;;;;;;;6.18;1.30;;;;;;;25.58;33.21;99670.50;4493098;31;34654;-84
2022/06/23 06:09:35;;;;;;;3.87;1.00;;;;;;;25.47;32.47;99665.44;4480858;31;33694;-84
2022/06/23 06:11:30;;;;;;;7.15;0.80;;;;;;;25.84;31.89;99669.56;4486745;31;33252;-84
2022/06/23 06:14:00;;;;;;;2.65;0.80;;;;;;;25.96;31.70;99676.31;4477784;31;34124;-84
2022/06/23 06:16:29;;;;;;;4.37;1.92;;;;;;;26.18;31.29;99678.34;4488522;31;33902;-84
2022/06/23 06:18:59;;;;;;;1.80;0.88;;;;;;;26.26;31.35;99685.62;4474908;31;32661;-84
2022/06/23 06:21:28;;;;;;;3.72;1.05;;;;;;;26.19;31.20;99679.19;4481487;31;33426;-84
2022/06/23 06:24:25;;;;;;;1.55;0.98;;;;;;;25.89;33.03;99683.44;4474145;32;34545;-84
2022/06/23 06:26:54;;;;;;;1.87;1.35;;;;;;;26.35;30.79;99684.59;4480549;31;32926;-84
2022/06/23 06:29:43;;;;;;;3.67;1.12;;;;;;;26.80;30.09;99677.75;4489748;31;33211;-85
2022/06/23 06:32:21;;;;;;;0.80;0.70;;;;;;;26.12;29.12;99689.88;4477551;31;32184;-84
2022/06/23 06:37:46;;;;;;;1.42;0.82;;;;;;;26.77;31.34;99689.75;4493924;31;34342;-83
2022/06/23 06:40:17;;;;;;;0.98;0.93;;;;;;;26.07;31.35;99696.81;4466562;31;33384;-83
2022/06/23 06:42:57;;;;;;;1.55;1.08;;;;;;;26.79;28.19;99681.50;4495202;31;32522;-83
2022/06/23 06:45:32;;;;;;;1.37;0.95;;;;;;;26.17;31.48;99692.91;4493506;31;34278;-83
2022/06/23 06:48:03;;;;;;;2.42;1.00;;;;;;;26.56;32.42;99697.63;4470986;32;33225;-83
2022/06/23 06:53:26;;;;;;;1.85;0.85;;;;;;;26.55;29.02;99699.50;4487889;31;34071;-83
2022/06/23 06:56:13;;;;;;;1.15;0.57;;;;;;;26.75;28.40;99697.25;4475109;31;34152;-82
2022/06/23 06:58:45;;;;;;;0.80;0.80;;;;;;;26.57;29.08;99704.72;4473091;31;33318;-83
2022/06/23 07:01:24;;;;;;;1.50;1.00;;;;;;;26.84;29.24;99698.06;4480808;31;34077;-83
2022/06/23 07:03:55;;;;;;;1.20;1.05;;;;;;;26.95;28.21;99713.09;4499502;31;34149;-82
2022/06/23 07:06:39;;;;;;;1.40;0.70;;;;;;;26.97;28.91;99711.91;4476874;31;33854;-83
2022/06/23 07:09:31;;;;;;;1.95;1.08;;;;;;;26.73;29.40;99710.13;4479515;31;33789;-83
2022/06/23 07:12:24;;;;;;;1.45;1.00;;;;;;;27.18;28.72;99697.78;4489778;31;32704;-83
2022/06/23 07:15:17;;;;;;;3.95;1.15;;;;;;;27.27;27.35;99709.44;4489989;31;33068;-83
2022/06/23 07:17:56;;;;;;;1.20;0.82;;;;;;;27.21;30.46;99708.28;4491159;31;34462;-82
2022/06/23 07:20:40;;;;;;;3.30;1.15;;;;;;;26.81;28.85;99709.22;4476828;31;33972;-83
2022/06/23 07:23:20;;;;;;;3.22;0.85;;;;;;;27.11;29.04;99712.22;4499922;31;33972;-83
2022/06/23 07:25:52;;;;;;;2.62;0.80;;;;;;;27.42;28.16;99715.78;4478678;31;32055;-83
2022/06/23 07:28:32;;;;;;;0.70;0.60;;;;;;;26.68;29.97;99723.34;4467965;31;32863;-83
2022/06/23 07:31:14;;;;;;;3.58;1.10;;;;;;;27.13;29.23;99712.88;4490343;31;35694;-83
2022/06/23 07:34:03;;;;;;;1.70;0.80;;;;;;;27.10;30.22;99716.78;4488861;31;32329;-83
2022/06/23 07:36:37;;;;;;;3.92;1.30;;;;;;;27.60;29.26;99720.97;4485519;31;32373;-83
2022/06/23 07:39:17;;;;;;;0.85;0.75;;;;;;;27.51;28.98;99724.75;4481196;31;33212;-83
2022/06/23 07:41:56;;;;;;;1.10;1.00;;;;;;;27.66;28.94;99731.09;4474702;31;34491;-83
2022/06/23 07:44:48;;;;;;;7.10;1.35;;;;;;;28.15;29.04;99722.62;4477730;32;32719;-83
2022/06/23 07:47:18;;;;;;;0.90;0.68;;;;;;;28.31;27.35;99721.66;4475804;31;33586;-83
2022/06/23 07:49:52;;;;;;;3.00;1.15;;;;;;;28.05;29.04;99728.28;4480790;31;33351;-83
2022/06/23 07:52:21;;;;;;;2.42;0.70;;;;;;;28.36;26.99;99723.84;4493705;31;33644;-83
2022/06/23 07:54:50;;;;;;;1.92;1.10;;;;;;;28.14;27.00;99730.94;4479985;31;30697;-83
2022/06/23 07:57:19;;;;;;;2.20;0.98;;;;;;;28.30;29.42;99731.66;4477054;32;32225;-83
2022/06/23 07:59:59;;;;;;;2.08;0.70;;;;;;;28.02;28.84;99733.25;4462623;31;32705;-83
2022/06/23 08:02:49;;;;;;;2.65;1.00;;;;;;;28.69;26.42;99729.81;4483319;31;32554;-83
2022/06/23 08:05:26;;;;;;;1.73;0.93;;;;;;;28.28;26.64;99733.72;4482271;31;33896;-83
2022/06/23 08:08:01;;;;;;;1.45;0.90;;;;;;;28.59;24.81;99730.06;4493762;31;33202;-84
2022/06/23 08:10:32;;;;;;;5.80;1.05;;;;;;;28.62;26.78;99735.13;4481052;31;32465;-83
2022/06/23 08:13:09;;;;;;;2.65;0.80;;;;;;;28.68;27.43;99734.41;4478201;31;34043;-83
2022/06/23 08:19:04;;;;;;;1.25;0.98;;;;;;;29.29;25.04;99720.63;4479320;31;33540;-83
2022/06/23 08:21:43;;;;;;;3.22;1.58;;;;;;;29.27;25.91;99719.97;4490952;31;34226;-83
2022/06/23 08:24:23;;;;;;;1.87;1.33;;;;;;;29.07;26.00;99722.44;4478103;31;33989;-83
2022/06/23 08:26:57;;;;;;;3.22;1.25;;;;;;;29.10;25.67;99719.34;4481999;31;31945;-83
2022/06/23 08:29:34;;;;;;;2.12;0.90;;;;;;;29.41;26.73;99718.28;4476550;31;32742;-83
2022/06/23 08:32:03;;;;;;;2.10;0.85;;;;;;;29.25;29.00;99720.19;4488219;31;33652;-82
2022/06/23 08:34:33;;;;;;;2.58;0.90;;;;;;;29.17;26.21;99720.28;4466177;31;33096;-82
2022/06/23 08:37:18;;;;;;;1.10;0.70;;;;;;;29.11;28.13;99729.19;4476175;31;33501;-83
2022/06/23 08:42:52;;;;;;;2.45;0.90;;;;;;;28.35;26.30;99722.16;4493198;31;34405;-82
2022/06/23 08:45:55;;;;;;;3.50;0.90;;;;;;;28.68;27.04;99723.53;4489334;31;32892;-83
2022/06/23 08:48:27;;;;;;;;;;;;;;;29.06;24.80;99726.19;4478981;31;32725;-82
2022/06/23 08:51:02;;;;;;;2.97;1.00;;;;;;;28.79;24.84;99711.34;4494626;31;32928;-82
2022/06/23 08:53:59;;;;;;;5.53;1.40;;;;;;;29.22;25.13;99715.12;4476164;31;33673;-82
2022/06/23 08:56:36;;;;;;;1.02;0.90;;;;;;;29.15;24.84;99719.63;4473937;31;33803;-82
2022/06/23 08:59:40;;;;;;;1.62;0.93;;;;;;;30.15;26.62;99720.78;4492186;31;33135;-83
2022/06/23 09:02:20;;;;;;;2.37;0.80;;;;;;;29.94;24.03;99711.56;4489744;31;33417;-83
2022/06/23 09:05:20;;;;;;;1.55;0.80;;;;;;;30.21;23.15;99720.03;4485432;31;32725;-83
2022/06/23 09:08:10;;;;;;;2.15;0.77;;;;;;;30.13;22.81;99718.25;4479691;31;33972;-82
2022/06/23 09:11:01;;;;;;;3.15;1.33;;;;;;;29.69;23.87;99716.53;4481338;31;292612;-82
2022/06/23 09:13:39;;;;;;;2.35;0.70;;;;;;;29.13;25.88;99710.81;4475708;31;32214;-82
2022/06/23 09:16:22;;;;;;;1.23;0.60;;;;;;;29.58;25.09;99708.91;4476603;31;32676;-82
2022/06/23 09:18:50;;;;;;;1.60;1.00;;;;;;;30.35;25.59;99710.91;4491859;31;33758;-82
2022/06/23 09:21:19;;;;;;;1.25;0.60;;;;;;;30.98;25.24;99705.50;4493655;31;33145;-82
2022/06/23 09:24:21;;;;;;;0.82;0.80;;;;;;;30.96;24.65;99705.72;4496641;31;33092;-83
2022/06/23 09:27:15;;;;;;;1.70;1.20;;;;;;;30.67;22.94;99714.94;4482728;31;32481;-82
2022/06/23 09:29:56;;;;;;;1.23;0.73;;;;;;;30.72;22.63;99707.03;4481840;31;34325;-83
2022/06/23 09:32:39;;;;;;;5.80;0.98;;;;;;;30.58;24.44;99706.06;4477677;31;33993;-82
2022/06/23 09:35:19;;;;;;;2.33;0.70;;;;;;;30.76;25.08;99708.28;4487565;31;32779;-82
2022/06/23 09:38:23;;;;;;;1.47;0.90;;;;;;;30.65;22.73;99706.09;4488948;31;33163;-83
2022/06/23 09:41:13;;;;;;;1.58;1.08;;;;;;;30.83;22.12;99709.19;4476450;31;34301;-84
2022/06/23 09:43:55;;;;;;;1.17;0.80;;;;;;;31.13;22.48;99708.94;4489294;31;35413;-84
2022/06/23 09:46:49;;;;;;;1.95;0.80;;;;;;;31.20;22.58;99706.25;4479487;31;33234;-84
2022/06/23 09:49:57;;;;;;;5.30;0.88;;;;;;;31.18;21.01;99706.44;4488821;31;33396;-84
2022/06/23 09:53:09;;;;;;;2.55;1.20;;;;;;;30.63;24.09;99710.94;4488739;31;33829;-85
2022/06/23 09:56:11;;;;;;;0.93;0.70;;;;;;;30.73;20.95;99705.16;4490028;31;33322;-84
2022/06/23 09:59:04;;;;;;;4.45;0.77;;;;;;;30.35;21.11;99695.41;4472930;31;32644;-83
2022/06/23 10:01:48;;;;;;;1.50;0.77;;;;;;;30.32;24.06;99701.25;4494454;31;33526;-84
2022/06/23 10:04:36;;;;;;;3.67;0.90;;;;;;;30.80;22.41;99697.84;4487171;31;33514;-84
2022/06/23 10:07:15;;;;;;;1.95;1.02;;;;;;;30.39;21.39;99695.03;4474971;31;33984;-84
2022/06/23 10:10:42;;;;;;;1.40;0.90;;;;;;;31.07;20.36;99688.75;4474188;31;32826;-84
2022/06/23 10:16:07;;;;;;;3.53;0.73;;;;;;;31.72;23.53;99686.50;4486323;31;33561;-84
2022/06/23 10:18:58;;;;;;;2.35;1.15;;;;;;;31.65;20.04;99684.81;4494023;31;34330;-84
2022/06/23 10:21:50;;;;;;;3.60;1.20;;;;;;;31.56;24.87;99700.53;4504123;31;30610;-84
2022/06/23 10:24:28;;;;;;;2.65;0.80;;;;;;;31.17;19.42;99702.03;4493234;31;33995;-84
2022/06/23 10:27:17;;;;;;;3.25;0.90;;;;;;;31.30;20.50;99701.28;4480288;31;33175;-84
2022/06/23 10:30:19;;;;;;;1.10;0.52;;;;;;;30.88;20.83;99694.13;4490641;31;33546;-83
2022/06/23 10:33:26;;;;;;;2.17;0.57;;;;;;;31.18;22.32;99689.22;4493622;31;34111;-83
2022/06/23 10:36:16;;;;;;;1.50;0.90;;;;;;;31.10;20.61;99687.53;4496310;31;34405;-83
2022/06/23 10:39:12;;;;;;;7.35;1.00;;;;;;;31.42;21.56;99685.16;4486632;31;33107;-84
2022/06/23 10:42:16;;;;;;;5.18;0.85;;;;;;;32.15;20.83;99690.78;4493535;31;33763;-83
2022/06/23 10:45:10;;;;;;;2.25;0.60;;;;;;;32.37;18.68;99682.19;4481702;31;32557;-83
2022/06/23 10:48:37;;;;;;;0.80;0.80;;;;;;;32.45;18.84;99672.94;4480676;31;33960;-84
2022/06/23 10:51:06;;;;;;;1.70;0.70;;;;;;;31.87;18.19;99679.00;4445661;32;34507;-83
2022/06/23 10:54:13;;;;;;;1.10;0.93;;;;;;;31.92;20.05;99683.00;4468690;31;32129;-83
2022/06/23 10:57:18;;;;;;;0.60;0.60;;;;;;;31.94;20.96;99683.63;4483796;31;33184;-83
2022/06/23 10:59:50;;;;;;;1.75;0.50;;;;;;;31.83;21.28;99680.47;4470159;31;33463;-84
2022/06/23 11:02:22;;;;;;;2.75;0.82;;;;;;;32.20;18.81;99680.06;4479023;31;33060;-85
2022/06/23 11:05:15;;;;;;;4.62;0.77;;;;;;;32.14;18.56;99673.53;4489793;31;33825;-84
2022/06/23 11:08:04;;;;;;;3.03;1.10;;;;;;;31.80;18.74;99683.56;4478808;31;32285;-85
2022/06/23 11:10:44;;;;;;;1.80;0.70;;;;;;;31.50;19.03;99676.78;4480951;31;32836;-83
2022/06/23 11:13:29;;;;;;;3.37;0.73;;;;;;;31.57;20.05;99677.62;4486516;31;33637;-83
2022/06/23 11:16:29;;;;;;;2.28;1.20;;;;;;;31.70;20.02;99674.94;4495615;31;33037;-83
2022/06/23 11:19:17;;;;;;;2.45;0.80;;;;;;;31.60;21.18;99682.69;4490316;31;32585;-83
2022/06/23 11:21:57;;;;;;;2.22;0.60;;;;;;;31.85;21.19;99670.16;4490065;31;33411;-82
2022/06/23 11:24:31;;;;;;;0.80;0.70;;;;;;;31.51;19.18;99682.03;4479068;31;32827;-82
2022/06/23 11:27:21;;;;;;;3.20;0.90;;;;;;;31.73;18.94;99676.44;4502866;31;33851;-83
2022/06/23 11:30:07;;;;;;;1.58;0.70;;;;;;;32.11;19.53;99668.50;4490039;31;33358;-82
2022/06/23 11:32:44;;;;;;;2.03;0.57;;;;;;;31.93;22.13;99671.03;4480012;31;32976;-83
2022/06/23 11:35:45;;;;;;;2.15;0.70;;;;;;;31.91;19.76;99667.69;4492336;31;33518;-82
2022/06/23 11:38:49;;;;;;;23.55;2.10;;;;;;;32.01;19.52;99657.16;4479849;31;34019;-83
2022/06/23 11:44:40;;;;;;;1.08;0.60;;;;;;;31.87;21.20;99672.69;4492606;31;32888;-83
2022/06/23 11:47:09;;;;;;;2.35;0.50;;;;;;;32.02;19.54;99658.84;4490472;31;34364;-84
2022/06/23 11:50:04;;;;;;;2.17;0.60;;;;;;;31.69;19.11;99669.69;4482730;31;32454;-83
2022/06/23 11:52:48;;;;;;;1.62;0.52;;;;;;;31.95;18.23;99663.44;4482041;31;33746;-83
2022/06/23 11:55:26;;;;;;;1.40;0.70;;;;;;;31.77;21.79;99670.34;4500501;31;33481;-84
2022/06/23 11:58:13;;;;;;;3.53;0.70;;;;;;;32.40;19.34;99663.69;4490860;31;33732;-83
2022/06/23 12:00:47;;;;;;;0.47;0.47;;;;;;;31.70;18.98;99666.75;4493132;31;33109;-83
2022/06/23 12:03:44;;;;;;;1.45;1.10;;;;;;;32.05;18.86;99666.63;4492124;31;32066;-83
2022/06/23 12:06:40;;;;;;;9.20;1.30;;;;;;;31.93;17.95;99668.28;4475090;31;32586;-83
2022/06/23 12:09:28;;;;;;;5.30;0.73;;;;;;;31.82;17.78;99670.59;4491337;31;33386;-83
2022/06/23 12:11:59;;;;;;;0.52;0.50;;;;;;;32.06;18.21;99668.31;4474047;31;32691;-84
2022/06/23 12:17:36;;;;;;;1.90;0.90;;;;;;;31.84;17.54;99667.66;4480500;31;31120;-83
2022/06/23 12:20:11;;;;;;;3.00;1.00;;;;;;;31.40;19.26;99669.00;4496454;31;34442;-83
2022/06/23 12:22:44;;;;;;;9.40;1.33;;;;;;;31.54;18.32;99673.44;4496047;31;31339;-83
2022/06/23 12:25:15;;;;;;;5.60;1.60;;;;;;;31.58;18.34;99673.87;4498239;31;33656;-83
2022/06/23 12:27:55;;;;;;;3.60;0.70;;;;;;;31.82;18.89;99670.59;4488594;31;34171;-83
2022/06/23 12:30:24;;;;;;;1.85;1.00;;;;;;;31.70;18.26;99672.22;4483883;31;32772;-83
2022/06/23 12:33:10;;;;;;;4.45;0.70;;;;;;;31.46;19.02;99675.50;4479756;31;32903;-83
2022/06/23 12:35:51;;;;;;;0.80;0.60;;;;;;;31.60;22.14;99677.22;4482117;31;33565;-83
2022/06/23 12:41:17;;;;;;;1.58;0.60;;;;;;;32.13;18.00;99664.50;4500996;31;34038;-83
2022/06/23 12:43:54;;;;;;;1.42;0.60;;;;;;;32.41;17.62;99679.03;4483568;31;32522;-83
2022/06/23 12:46:51;;;;;;;1.83;0.80;;;;;;;32.62;17.76;99665.13;4492250;31;33866;-83
2022/06/23 12:49:43;;;;;;;0.82;0.65;;;;;;;32.73;18.39;99659.00;4484200;31;32838;-83
2022/06/23 12:52:43;;;;;;;1.40;0.60;;;;;;;32.81;18.36;99658.78;4478312;31;33155;-83
2022/06/23 12:55:23;;;;;;;4.62;0.98;;;;;;;32.64;17.28;99643.87;4493833;31;33839;-83
2022/06/23 12:57:57;;;;;;;1.05;0.68;;;;;;;32.78;17.39;99653.72;4478884;31;32238;-83
2022/06/23 13:00:34;;;;;;;1.27;0.90;;;;;;;32.31;17.95;99652.09;4487444;31;33328;-83
2022/06/23 13:03:14;;;;;;;1.87;0.60;;;;;;;32.32;18.66;99651.88;4489911;31;33455;-83
2022/06/23 13:05:56;;;;;;;5.43;1.10;;;;;;;31.93;19.35;99657.37;4487467;31;32682;-83